Time;durP1;ratioP1;P1;durP2;ratioP2;P2;SDS_P1;SDS_P2;PMS_P1;PMS_P2;Temp;Humidity;BMP_temperature;BMP_pressure;BME280_temperature;BME280_humidity;BME280_pressure;Samples;Min_cycle;Max_cycle;Signal;HPM_P1;HPM_P2
2022/08/04 00:01:55;;;;;;;6.03;1.90;;;23.60;99.90;;;;;;5079671;28;20421;-43
2022/08/04 00:04:43;;;;;;;6.83;2.33;;;23.60;99.90;;;;;;5091872;28;20460;-42
2022/08/04 00:07:36;;;;;;;5.17;1.77;;;23.70;99.90;;;;;;5092287;28;20418;-44
2022/08/04 00:10:05;;;;;;;5.47;2.07;;;23.70;99.90;;;;;;5092789;28;20836;-43
2022/08/04 00:12:33;;;;;;;10.33;2.57;;;23.70;99.90;;;;;;5092857;28;20426;-43
2022/08/04 00:15:01;;;;;;;7.23;2.07;;;23.80;99.90;;;;;;5092409;28;20487;-42
2022/08/04 00:17:55;;;;;;;6.27;2.17;;;23.70;99.90;;;;;;5092325;28;20423;-42
2022/08/04 00:20:24;;;;;;;4.47;2.37;;;23.70;99.90;;;;;;5072219;28;20452;-44
2022/08/04 00:22:51;;;;;;;3.67;1.90;;;23.80;99.90;;;;;;5092775;28;20901;-43
2022/08/04 00:25:18;;;;;;;6.00;2.10;;;23.80;99.90;;;;;;5089845;28;20453;-44
2022/08/04 00:27:45;;;;;;;4.17;2.37;;;23.80;99.90;;;;;;5106813;28;20410;-42
2022/08/04 00:30:11;;;;;;;6.23;2.03;;;23.80;99.90;;;;;;5093724;28;20983;-43
2022/08/04 00:32:40;;;;;;;5.20;2.40;;;23.80;99.90;;;;;;5092595;28;20419;-43
2022/08/04 00:35:08;;;;;;;7.07;3.10;;;23.90;99.90;;;;;;5091661;28;20425;-42
2022/08/04 00:37:37;;;;;;;5.13;2.33;;;23.90;99.90;;;;;;5098208;28;20436;-45
2022/08/04 00:40:18;;;;;;;5.17;2.40;;;23.90;99.90;;;;;;5092563;28;20450;-42
2022/08/04 00:42:50;;;;;;;7.90;2.40;;;23.90;99.90;;;;;;5092228;28;20490;-42
2022/08/04 00:45:53;;;;;;;6.73;2.43;;;23.90;99.90;;;;;;5092262;28;20433;-43
2022/08/04 00:48:31;;;;;;;2.83;1.90;;;23.80;99.90;;;;;;5091196;28;20426;-47
2022/08/04 00:51:10;;;;;;;4.90;2.10;;;23.80;99.90;;;;;;5091941;28;20488;-43
2022/08/04 00:54:14;;;;;;;5.43;2.23;;;23.90;99.90;;;;;;5092091;28;20418;-43
2022/08/04 00:57:10;;;;;;;4.33;2.00;;;23.80;99.90;;;;;;5091266;28;20441;-43
2022/08/04 00:59:53;;;;;;;4.60;2.30;;;23.80;99.90;;;;;;5068960;28;20838;-42
2022/08/04 01:02:35;;;;;;;6.40;2.70;;;23.80;99.90;;;;;;5098647;28;20750;-43
2022/08/04 01:05:16;;;;;;;5.93;2.13;;;23.70;99.90;;;;;;5100266;28;20426;-42
2022/08/04 01:07:48;;;;;;;5.73;2.30;;;23.70;99.90;;;;;;5091144;28;20453;-43
2022/08/04 01:10:43;;;;;;;6.87;2.47;;;23.60;99.90;;;;;;5078094;28;20455;-42
2022/08/04 01:13:34;;;;;;;6.43;2.40;;;23.50;99.90;;;;;;5091216;28;20414;-42
2022/08/04 01:16:04;;;;;;;6.80;2.23;;;23.50;99.90;;;;;;5091648;28;20414;-43
2022/08/04 01:18:51;;;;;;;7.50;2.60;;;23.50;99.90;;;;;;5090717;28;20989;-42
2022/08/04 01:21:28;;;;;;;3.40;2.07;;;23.60;99.90;;;;;;5091400;28;20418;-42
2022/08/04 01:24:03;;;;;;;6.97;2.40;;;23.50;99.90;;;;;;5089864;28;20468;-43
2022/08/04 01:26:48;;;;;;;5.30;2.63;;;23.40;99.90;;;;;;5091263;28;20524;-41
2022/08/04 01:29:15;;;;;;;8.30;2.80;;;23.40;99.90;;;;;;5091120;28;20511;-42
2022/08/04 01:32:03;;;;;;;5.40;2.20;;;23.40;99.90;;;;;;5091318;28;20422;-45
2022/08/04 01:34:36;;;;;;;7.50;2.70;;;23.40;99.90;;;;;;5091131;28;20495;-43
2022/08/04 01:37:18;;;;;;;6.67;2.40;;;23.50;99.90;;;;;;5090561;28;20441;-43
2022/08/04 01:39:50;;;;;;;5.83;2.70;;;23.50;99.90;;;;;;5091048;28;20807;-44
2022/08/04 01:42:19;;;;;;;6.10;2.53;;;23.50;99.90;;;;;;5090903;28;20784;-46
2022/08/04 01:44:47;;;;;;;5.33;2.70;;;23.50;99.90;;;;;;5090853;28;20422;-42
2022/08/04 01:47:15;;;;;;;5.23;2.30;;;23.50;99.90;;;;;;5090394;28;20905;-42
2022/08/04 01:49:45;;;;;;;5.53;2.70;;;23.60;99.90;;;;;;5090810;28;20473;-42
2022/08/04 01:52:15;;;;;;;5.67;2.50;;;23.50;99.90;;;;;;5089900;28;20494;-45
2022/08/04 01:54:42;;;;;;;6.63;2.67;;;23.50;99.90;;;;;;5099701;28;20909;-43
2022/08/04 01:57:10;;;;;;;6.00;2.27;;;23.60;99.90;;;;;;5089963;28;20790;-43
2022/08/04 01:59:38;;;;;;;7.47;2.60;;;23.60;99.90;;;;;;5090878;28;20432;-43
2022/08/04 02:02:05;;;;;;;8.80;2.60;;;23.60;99.90;;;;;;5090540;28;20437;-42
2022/08/04 02:04:31;;;;;;;4.73;2.40;;;23.50;99.90;;;;;;5090550;28;20464;-42
2022/08/04 02:07:12;;;;;;;6.33;2.63;;;23.50;99.90;;;;;;5090077;28;20438;-43
2022/08/04 02:09:52;;;;;;;7.77;2.57;;;23.50;99.90;;;;;;5080878;28;20466;-43
2022/08/04 02:12:33;;;;;;;5.73;2.97;;;23.50;99.90;;;;;;5088593;28;20480;-46
2022/08/04 02:15:07;;;;;;;5.23;2.63;;;23.50;99.90;;;;;;5090483;28;20425;-43
2022/08/04 02:17:58;;;;;;;5.50;2.90;;;23.40;99.90;;;;;;5089643;28;20455;-47
2022/08/04 02:20:27;;;;;;;3.20;2.63;;;23.40;99.90;;;;;;5089009;28;20958;-43
2022/08/04 02:22:59;;;;;;;3.50;2.17;;;23.40;99.90;;;;;;5090392;28;20419;-43
2022/08/04 02:25:28;;;;;;;4.20;2.40;;;23.30;99.90;;;;;;5090278;28;20430;-43
2022/08/04 02:28:08;;;;;;;5.30;2.30;;;23.30;99.90;;;;;;5089494;28;20555;-42
2022/08/04 02:30:50;;;;;;;3.03;2.33;;;23.20;99.90;;;;;;5090248;28;20485;-44
2022/08/04 02:33:22;;;;;;;5.90;2.80;;;23.20;99.90;;;;;;5090055;28;20455;-43
2022/08/04 02:35:52;;;;;;;13.20;2.73;;;23.10;99.90;;;;;;5090363;28;20430;-43
2022/08/04 02:38:30;;;;;;;5.63;2.90;;;23.00;99.90;;;;;;5089325;28;20613;-44
2022/08/04 02:40:59;;;;;;;10.47;3.00;;;23.00;99.90;;;;;;5090275;28;20426;-42
2022/08/04 02:43:26;;;;;;;3.63;2.80;;;22.90;99.90;;;;;;5090020;28;20426;-43
2022/08/04 02:45:55;;;;;;;5.60;2.73;;;22.90;99.90;;;;;;5090121;28;20980;-43
2022/08/04 02:48:24;;;;;;;5.97;2.60;;;22.90;99.90;;;;;;5089340;28;20414;-42
2022/08/04 02:50:53;;;;;;;6.07;2.97;;;22.90;99.90;;;;;;5096480;28;20518;-44
2022/08/04 02:53:21;;;;;;;7.10;2.90;;;22.90;99.90;;;;;;5099339;28;20752;-42
2022/08/04 02:55:47;;;;;;;7.30;2.80;;;22.80;99.90;;;;;;5093563;28;20850;-43
2022/08/04 02:58:18;;;;;;;4.37;2.77;;;22.70;99.90;;;;;;5095497;28;20461;-43
2022/08/04 03:00:44;;;;;;;3.70;2.70;;;22.50;99.90;;;;;;5089949;28;20836;-42
2022/08/04 03:03:43;;;;;;;3.87;2.70;;;22.40;99.90;;;;;;5089888;28;20426;-43
2022/08/04 03:06:10;;;;;;;4.80;2.90;;;22.30;99.90;;;;;;5088414;28;20453;-42
2022/08/04 03:08:38;;;;;;;11.97;3.13;;;22.10;99.90;;;;;;5088115;28;20426;-45
2022/08/04 03:11:45;;;;;;;4.07;3.07;;;22.00;99.90;;;;;;5077570;28;20495;-45
2022/08/04 03:14:30;;;;;;;4.80;3.00;;;21.90;99.90;;;;;;5089710;28;20422;-43
2022/08/04 03:17:26;;;;;;;5.00;3.20;;;21.80;99.90;;;;;;5089069;28;20501;-42
2022/08/04 03:20:03;;;;;;;5.23;3.17;;;21.70;99.90;;;;;;5088356;28;20430;-42
2022/08/04 03:23:02;;;;;;;7.30;3.67;;;21.60;99.90;;;;;;5089478;28;20413;-43
2022/08/04 03:25:58;;;;;;;4.60;3.63;;;21.60;99.90;;;;;;5089916;28;20442;-43
2022/08/04 03:28:30;;;;;;;3.77;2.70;;;21.70;99.90;;;;;;5092994;28;20426;-46
2022/08/04 03:31:04;;;;;;;5.20;3.20;;;21.70;99.90;;;;;;5093681;28;20531;-45
2022/08/04 03:33:48;;;;;;;5.27;3.07;;;21.70;99.90;;;;;;5093654;28;20428;-45
2022/08/04 03:36:35;;;;;;;4.40;3.10;;;21.70;99.90;;;;;;5093445;28;21002;-45
2022/08/04 03:39:14;;;;;;;4.07;3.20;;;21.60;99.90;;;;;;5093117;28;20466;-44
2022/08/04 03:41:57;;;;;;;5.33;3.10;;;21.50;99.90;;;;;;5094580;28;20433;-43
2022/08/04 03:44:52;;;;;;;7.50;3.50;;;21.50;99.90;;;;;;5100954;28;20417;-42
2022/08/04 03:47:42;;;;;;;7.93;3.67;;;21.40;99.90;;;;;;5051979;28;20432;-44
2022/08/04 03:50:41;;;;;;;6.30;3.10;;;21.30;99.90;;;;;;5082411;28;20494;-43
2022/08/04 03:53:25;;;;;;;7.80;3.40;;;21.20;99.90;;;;;;5093341;28;20421;-45
2022/08/04 03:56:22;;;;;;;6.73;3.63;;;21.20;99.90;;;;;;5093111;28;20414;-42
2022/08/04 03:59:09;;;;;;;4.90;2.90;;;21.10;99.90;;;;;;5092207;28;20418;-42
2022/08/04 04:01:41;;;;;;;4.43;3.97;;;21.10;99.90;;;;;;5092183;28;20426;-43
2022/08/04 04:04:32;;;;;;;4.60;3.50;;;21.00;99.90;;;;;;5095241;28;20418;-43
2022/08/04 04:07:19;;;;;;;4.23;3.37;;;21.10;99.90;;;;;;5092366;28;20746;-45
2022/08/04 04:10:04;;;;;;;6.27;3.57;;;21.00;99.90;;;;;;5082206;28;20494;-45
2022/08/04 04:12:41;;;;;;;4.37;3.10;;;21.00;99.90;;;;;;5092267;28;20478;-44
2022/08/04 04:15:28;;;;;;;3.43;3.13;;;20.90;99.90;;;;;;5091962;28;20461;-46
2022/08/04 04:18:18;;;;;;;5.53;3.33;;;20.80;99.90;;;;;;5106500;28;20421;-43
2022/08/04 04:21:15;;;;;;;4.53;3.17;;;20.80;99.90;;;;;;5078181;28;20441;-44
2022/08/04 04:24:02;;;;;;;6.03;3.40;;;20.80;99.90;;;;;;5092623;28;20950;-43
2022/08/04 04:27:06;;;;;;;6.70;3.60;;;20.80;99.90;;;;;;5092093;28;20811;-43
2022/08/04 04:29:40;;;;;;;4.33;3.30;;;20.70;99.90;;;;;;5055050;28;20899;-45
2022/08/04 04:32:09;;;;;;;8.00;3.50;;;20.70;99.90;;;;;;5076265;28;20433;-43
2022/08/04 04:34:52;;;;;;;9.20;3.30;;;20.70;99.90;;;;;;5092305;28;20418;-43
2022/08/04 04:37:51;;;;;;;6.33;3.20;;;20.70;99.90;;;;;;5098548;28;20445;-46
2022/08/04 04:40:54;;;;;;;4.80;3.67;;;20.70;99.90;;;;;;5102606;28;21255;-43
2022/08/04 04:43:44;;;;;;;4.67;3.47;;;20.70;99.90;;;;;;5097150;28;20425;-44
2022/08/04 04:46:21;;;;;;;4.43;3.47;;;20.70;99.90;;;;;;5091973;28;20431;-44
2022/08/04 04:48:53;;;;;;;3.90;3.60;;;20.70;99.90;;;;;;5103218;28;20444;-43
2022/08/04 04:51:24;;;;;;;5.10;3.50;;;20.80;99.90;;;;;;5092499;28;20511;-43
2022/08/04 04:54:12;;;;;;;6.80;3.20;;;20.80;99.90;;;;;;5091996;28;20437;-45
2022/08/04 04:56:56;;;;;;;3.63;3.33;;;20.80;99.90;;;;;;5091433;28;20418;-42
2022/08/04 04:59:27;;;;;;;7.43;3.63;;;20.80;99.90;;;;;;5090889;28;20923;-45
2022/08/04 05:01:59;;;;;;;4.80;2.97;;;20.80;99.90;;;;;;5091815;28;20517;-43
2022/08/04 05:04:31;;;;;;;5.40;3.70;;;20.90;99.90;;;;;;5091542;28;20442;-44
2022/08/04 05:07:26;;;;;;;6.57;3.60;;;20.90;99.90;;;;;;5091180;28;20438;-43
2022/08/04 05:10:33;;;;;;;5.23;3.60;;;21.00;99.90;;;;;;5103558;28;20469;-44
2022/08/04 05:13:14;;;;;;;5.57;3.60;;;21.00;99.90;;;;;;5081074;28;21032;-44
2022/08/04 05:15:43;;;;;;;3.40;3.10;;;21.10;99.90;;;;;;5091564;28;20438;-43
2022/08/04 05:18:21;;;;;;;5.07;3.57;;;21.10;99.90;;;;;;5090834;28;20418;-45
2022/08/04 05:21:12;;;;;;;8.30;3.77;;;21.20;99.90;;;;;;5087765;28;20532;-43
2022/08/04 05:23:43;;;;;;;4.43;3.27;;;21.20;99.90;;;;;;5099620;28;20422;-45
2022/08/04 05:26:15;;;;;;;5.20;3.20;;;21.30;99.90;;;;;;5083624;28;20461;-44
2022/08/04 05:28:56;;;;;;;4.03;2.87;;;21.30;99.90;;;;;;5090612;28;20434;-43
2022/08/04 05:31:27;;;;;;;4.97;3.50;;;21.30;99.90;;;;;;5090948;28;20514;-47
2022/08/04 05:34:04;;;;;;;6.23;3.73;;;21.40;99.90;;;;;;5091214;28;20421;-44
2022/08/04 05:36:38;;;;;;;3.87;3.30;;;21.50;99.90;;;;;;5091188;28;20418;-43
2022/08/04 05:39:06;;;;;;;5.07;3.90;;;21.50;99.90;;;;;;5090870;28;20525;-44
2022/08/04 05:41:33;;;;;;;4.80;3.60;;;21.60;99.90;;;;;;5085433;28;20452;-43
2022/08/04 05:44:00;;;;;;;5.37;3.50;;;21.70;99.90;;;;;;5098366;28;20501;-44
2022/08/04 05:46:28;;;;;;;6.73;3.10;;;21.70;99.90;;;;;;5083217;28;20457;-43
2022/08/04 05:48:54;;;;;;;6.63;3.93;;;21.90;99.90;;;;;;5089292;28;20418;-43
2022/08/04 05:51:20;;;;;;;4.50;3.00;;;22.00;99.90;;;;;;5088970;28;20523;-44
2022/08/04 05:53:47;;;;;;;4.70;3.43;;;22.10;99.90;;;;;;5086055;28;20450;-46
2022/08/04 05:56:14;;;;;;;4.43;3.50;;;22.30;99.90;;;;;;5103743;28;20417;-43
2022/08/04 05:58:41;;;;;;;4.73;3.20;;;22.50;99.90;;;;;;5094039;28;20456;-42
2022/08/04 06:01:09;;;;;;;5.83;3.20;;;22.60;99.90;;;;;;5089954;28;20433;-42
2022/08/04 06:03:37;;;;;;;4.73;3.43;;;22.80;99.90;;;;;;5090751;28;20505;-46
2022/08/04 06:06:04;;;;;;;3.80;3.13;;;23.10;99.90;;;;;;5090436;28;20438;-44
2022/08/04 06:08:30;;;;;;;5.33;3.17;;;23.30;99.90;;;;;;5089953;28;20415;-45
2022/08/04 06:11:03;;;;;;;5.37;3.70;;;23.50;99.90;;;;;;5076823;28;20549;-45
2022/08/04 06:13:32;;;;;;;3.10;2.80;;;23.60;99.90;;;;;;5090424;28;20913;-44
2022/08/04 06:16:00;;;;;;;3.90;3.43;;;23.80;99.90;;;;;;5090487;28;20936;-43
2022/08/04 06:18:28;;;;;;;5.20;3.40;;;23.90;99.90;;;;;;5089719;28;20410;-45
2022/08/04 06:20:57;;;;;;;4.27;3.13;;;24.00;99.90;;;;;;5089560;28;20445;-42
2022/08/04 06:23:28;;;;;;;6.20;2.97;;;24.10;99.90;;;;;;5089392;28;20430;-48
2022/08/04 06:25:57;;;;;;;4.27;3.23;;;24.10;99.90;;;;;;5090203;28;20418;-44
2022/08/04 06:28:25;;;;;;;5.20;3.77;;;24.10;99.90;;;;;;5088768;28;20506;-44
2022/08/04 06:30:51;;;;;;;3.87;3.57;;;24.10;99.90;;;;;;5090171;28;20527;-47
2022/08/04 06:33:35;;;;;;;4.20;3.20;;;24.20;99.90;;;;;;5090224;28;20961;-44
2022/08/04 06:36:04;;;;;;;3.70;3.40;;;24.50;99.90;;;;;;5090013;28;20769;-46
2022/08/04 06:38:34;;;;;;;3.57;3.23;;;24.70;99.90;;;;;;5089423;28;21066;-48
2022/08/04 06:41:02;;;;;;;7.03;3.70;;;25.00;99.90;;;;;;5090277;28;20433;-45
2022/08/04 06:43:30;;;;;;;3.47;3.17;;;25.10;99.90;;;;;;5090190;28;20477;-44
2022/08/04 06:45:58;;;;;;;3.87;3.57;;;25.20;99.90;;;;;;5090026;28;21007;-43
2022/08/04 06:48:24;;;;;;;5.83;3.27;;;25.30;99.90;;;;;;5089198;28;20418;-43
2022/08/04 06:50:51;;;;;;;5.97;3.07;;;25.60;99.90;;;;;;5089822;28;20465;-44
2022/08/04 06:53:18;;;;;;;4.20;3.43;;;25.80;99.90;;;;;;5088369;28;20810;-43
2022/08/04 06:55:45;;;;;;;4.07;3.67;;;26.00;99.90;;;;;;5090654;28;20423;-43
2022/08/04 06:58:12;;;;;;;5.00;3.40;;;26.20;99.90;;;;;;5088100;28;20419;-45
2022/08/04 07:00:40;;;;;;;4.10;3.67;;;26.40;99.90;;;;;;5090511;28;20507;-42
2022/08/04 07:03:07;;;;;;;4.33;3.60;;;26.60;99.90;;;;;;5093871;28;20436;-46
2022/08/04 07:05:34;;;;;;;3.43;3.13;;;26.70;99.90;;;;;;5093853;28;20445;-44
2022/08/04 07:08:00;;;;;;;5.07;3.50;;;26.80;99.90;;;;;;5093685;28;20418;-43
2022/08/04 07:10:27;;;;;;;4.87;3.37;;;26.80;99.80;;;;;;5091704;28;20973;-44
2022/08/04 07:12:53;;;;;;;9.17;3.77;;;26.90;99.60;;;;;;5093495;28;20422;-46
2022/08/04 07:15:20;;;;;;;3.43;3.13;;;27.00;99.70;;;;;;5093877;28;20510;-42
2022/08/04 07:17:48;;;;;;;3.90;3.60;;;27.10;99.30;;;;;;5093103;28;20997;-43
2022/08/04 07:20:14;;;;;;;3.83;3.53;;;27.20;99.40;;;;;;5092819;28;21226;-45
2022/08/04 07:22:41;;;;;;;3.63;3.13;;;27.20;99.30;;;;;;5093849;28;20425;-42
2022/08/04 07:25:11;;;;;;;4.23;3.90;;;27.30;99.50;;;;;;5093488;28;20697;-43
2022/08/04 07:27:38;;;;;;;4.70;3.30;;;27.40;99.30;;;;;;5093121;28;20917;-46
2022/08/04 07:30:07;;;;;;;3.70;3.40;;;27.60;98.80;;;;;;5093478;28;20454;-44
2022/08/04 07:32:34;;;;;;;3.50;3.30;;;27.70;98.20;;;;;;5093549;28;20428;-44
2022/08/04 07:35:01;;;;;;;3.60;3.17;;;27.80;97.90;;;;;;5092923;28;20475;-42
2022/08/04 07:37:27;;;;;;;3.53;3.30;;;27.90;97.90;;;;;;5092869;28;21033;-42
2022/08/04 07:39:53;;;;;;;4.13;3.83;;;27.90;98.10;;;;;;5092456;28;20426;-46
2022/08/04 07:42:20;;;;;;;5.20;3.53;;;28.00;97.80;;;;;;5093114;28;20199;-43
2022/08/04 07:44:46;;;;;;;4.33;3.77;;;28.10;97.50;;;;;;5092808;28;20905;-43
2022/08/04 07:47:12;;;;;;;4.77;3.20;;;28.20;98.00;;;;;;5092629;28;20422;-44
2022/08/04 07:49:40;;;;;;;3.50;3.30;;;28.30;97.50;;;;;;5092929;28;20520;-43
2022/08/04 07:52:06;;;;;;;4.03;3.33;;;28.30;97.80;;;;;;5093143;28;20418;-47
2022/08/04 07:54:33;;;;;;;3.93;3.40;;;28.40;97.80;;;;;;5093303;28;20422;-46
2022/08/04 07:57:00;;;;;;;4.13;3.83;;;28.50;97.60;;;;;;5092637;28;20421;-43
2022/08/04 07:59:26;;;;;;;4.90;3.07;;;28.50;96.20;;;;;;5091549;28;20430;-43
2022/08/04 08:01:52;;;;;;;3.97;3.60;;;28.50;96.30;;;;;;5093196;28;21016;-46
2022/08/04 08:04:19;;;;;;;3.23;3.00;;;28.60;96.20;;;;;;5092835;28;20518;-43
2022/08/04 08:06:44;;;;;;;6.40;3.80;;;28.60;96.00;;;;;;5091222;28;20453;-42
2022/08/04 08:09:16;;;;;;;3.93;3.10;;;28.70;95.70;;;;;;5086962;28;20542;-43
2022/08/04 08:11:45;;;;;;;5.73;3.20;;;28.70;95.80;;;;;;5085703;28;20180;-43
2022/08/04 08:14:12;;;;;;;4.73;3.17;;;28.60;96.60;;;;;;5092837;28;20825;-45
2022/08/04 08:16:38;;;;;;;3.23;2.93;;;28.70;96.00;;;;;;5092383;28;20982;-45
2022/08/04 08:19:04;;;;;;;4.63;3.37;;;28.70;96.50;;;;;;5091648;28;20422;-45
2022/08/04 08:21:30;;;;;;;3.60;3.20;;;28.70;95.70;;;;;;5092717;28;20172;-42
2022/08/04 08:23:57;;;;;;;4.77;3.07;;;28.80;95.90;;;;;;5092481;28;20423;-43
2022/08/04 08:26:23;;;;;;;3.80;3.50;;;28.80;95.80;;;;;;5092428;28;20410;-43
2022/08/04 08:28:49;;;;;;;3.60;3.27;;;28.80;95.80;;;;;;5091841;28;20458;-45
2022/08/04 08:31:14;;;;;;;4.30;3.60;;;28.80;95.30;;;;;;5092327;28;20461;-49
2022/08/04 08:33:40;;;;;;;5.10;3.53;;;28.80;95.80;;;;;;5092538;28;20429;-45
2022/08/04 08:36:33;;;;;;;4.70;3.40;;;28.90;95.00;;;;;;5092308;28;20184;-45
2022/08/04 08:39:17;;;;;;;6.63;3.17;;;28.80;94.80;;;;;;5091978;28;20505;-44
2022/08/04 08:42:35;;;;;;;3.40;3.10;;;28.90;94.90;;;;;;5090959;28;20484;-42
2022/08/04 08:45:22;;;;;;;5.03;3.57;;;28.90;95.00;;;;;;5092126;28;20414;-45
2022/08/04 08:48:43;;;;;;;3.50;3.20;;;29.00;94.50;;;;;;5091621;28;20473;-42
2022/08/04 08:51:16;;;;;;;3.40;3.10;;;29.00;94.20;;;;;;5067329;28;20560;-44
2022/08/04 08:54:23;;;;;;;4.23;3.40;;;29.10;93.70;;;;;;5092253;28;20784;-42
2022/08/04 08:57:10;;;;;;;3.50;3.20;;;29.10;93.60;;;;;;5091553;28;21104;-44
2022/08/04 09:00:04;;;;;;;6.00;4.37;;;29.20;94.70;;;;;;5091075;28;20418;-43
2022/08/04 09:02:45;;;;;;;3.67;3.33;;;29.30;94.70;;;;;;5091550;28;20439;-41
2022/08/04 09:05:29;;;;;;;3.67;3.20;;;29.40;94.60;;;;;;5091842;28;20465;-45
2022/08/04 09:08:38;;;;;;;4.83;3.17;;;29.50;93.90;;;;;;5079080;28;20424;-42
2022/08/04 09:11:15;;;;;;;6.40;5.77;;;29.50;93.30;;;;;;5079408;28;20458;-42
2022/08/04 09:13:47;;;;;;;5.63;3.57;;;29.60;93.20;;;;;;5091527;28;20418;-44
2022/08/04 09:16:54;;;;;;;3.40;3.10;;;29.60;93.30;;;;;;5091686;28;20510;-44
2022/08/04 09:19:28;;;;;;;3.10;2.90;;;29.70;93.40;;;;;;5090691;28;20905;-43
2022/08/04 09:22:18;;;;;;;5.00;2.97;;;29.80;92.90;;;;;;5090188;28;20486;-44
2022/08/04 09:25:06;;;;;;;3.00;2.40;;;29.90;92.70;;;;;;5090271;28;20425;-45
2022/08/04 09:27:54;;;;;;;3.10;2.80;;;30.10;92.00;;;;;;5080210;28;20418;-45
2022/08/04 09:30:37;;;;;;;3.93;2.57;;;30.20;91.60;;;;;;5091202;28;20461;-42
2022/08/04 09:33:39;;;;;;;3.20;2.57;;;30.40;90.70;;;;;;5089653;28;20434;-42
2022/08/04 09:36:41;;;;;;;2.97;2.77;;;30.60;90.10;;;;;;5091098;28;20417;-47
2022/08/04 09:39:22;;;;;;;2.70;2.33;;;30.60;88.70;;;;;;5091000;28;20418;-43
2022/08/04 09:42:17;;;;;;;4.53;2.60;;;30.60;87.50;;;;;;5089869;28;20422;-44
2022/08/04 09:44:51;;;;;;;2.77;2.20;;;30.70;87.80;;;;;;5090979;28;20423;-46
2022/08/04 09:47:34;;;;;;;2.13;2.03;;;30.80;86.60;;;;;;5090456;28;20432;-44
2022/08/04 09:50:18;;;;;;;2.90;2.07;;;30.90;85.60;;;;;;5090708;28;20458;-43
2022/08/04 09:53:11;;;;;;;3.90;2.60;;;31.00;87.10;;;;;;5090984;28;20410;-42
2022/08/04 09:56:13;;;;;;;2.60;2.40;;;31.20;85.70;;;;;;5090712;28;20422;-44
2022/08/04 09:59:08;;;;;;;5.60;2.20;;;31.10;83.90;;;;;;5088254;28;20433;-45
2022/08/04 10:01:37;;;;;;;2.47;2.27;;;31.20;87.30;;;;;;5090642;28;20514;-43
2022/08/04 10:04:08;;;;;;;3.50;2.57;;;31.30;85.60;;;;;;5090533;28;20917;-47
2022/08/04 10:06:49;;;;;;;3.37;2.60;;;31.40;85.60;;;;;;5080325;28;20504;-44
2022/08/04 10:09:40;;;;;;;3.53;2.60;;;31.50;87.30;;;;;;5084017;28;20427;-43
2022/08/04 10:12:12;;;;;;;2.70;2.50;;;31.70;88.90;;;;;;5087028;28;20526;-42
2022/08/04 10:15:08;;;;;;;4.73;2.20;;;31.80;87.70;;;;;;5090278;28;20504;-42
2022/08/04 10:17:38;;;;;;;2.50;2.00;;;32.00;86.00;;;;;;5089831;28;20442;-45
2022/08/04 10:20:41;;;;;;;4.93;3.57;;;32.00;84.70;;;;;;5089633;28;20427;-42
2022/08/04 10:23:09;;;;;;;5.47;2.80;;;32.10;86.80;;;;;;5090054;28;20448;-45
2022/08/04 10:26:00;;;;;;;4.20;2.53;;;32.20;85.10;;;;;;5088939;28;20536;-46
2022/08/04 10:28:29;;;;;;;4.80;3.67;;;32.30;84.10;;;;;;5089697;28;20411;-44
2022/08/04 10:31:03;;;;;;;3.73;2.40;;;32.40;85.90;;;;;;5090214;28;20470;-42
2022/08/04 10:33:49;;;;;;;4.13;2.60;;;32.50;84.00;;;;;;5088636;28;20423;-43
2022/08/04 10:36:20;;;;;;;2.70;2.50;;;32.40;83.20;;;;;;5089967;28;20449;-46
2022/08/04 10:38:56;;;;;;;2.57;2.20;;;32.40;83.20;;;;;;5089524;28;20461;-45
2022/08/04 10:41:41;;;;;;;3.73;2.43;;;32.30;82.30;;;;;;5088865;28;20422;-43
2022/08/04 10:44:32;;;;;;;2.60;2.40;;;32.30;81.40;;;;;;5089853;28;20434;-44
2022/08/04 10:47:02;;;;;;;3.00;2.30;;;32.30;80.80;;;;;;5089475;28;20429;-45
2022/08/04 10:49:41;;;;;;;4.23;2.63;;;32.10;79.50;;;;;;5089378;28;20421;-44
2022/08/04 10:52:42;;;;;;;4.03;2.60;;;32.10;79.00;;;;;;5089665;28;20505;-46
2022/08/04 10:55:34;;;;;;;2.70;2.50;;;32.10;79.80;;;;;;5087411;28;20422;-47
2022/08/04 10:58:05;;;;;;;4.97;2.60;;;32.30;79.20;;;;;;5088984;28;20942;-43
2022/08/04 11:00:37;;;;;;;2.53;2.37;;;32.50;80.90;;;;;;5089649;28;20748;-45
2022/08/04 11:03:07;;;;;;;2.93;2.50;;;32.60;76.70;;;;;;5089753;28;20411;-44
2022/08/04 11:05:53;;;;;;;4.00;2.60;;;32.70;80.90;;;;;;5089557;28;20453;-44
2022/08/04 11:08:33;;;;;;;4.80;3.07;;;32.80;77.80;;;;;;5089154;28;20428;-42
2022/08/04 11:11:27;;;;;;;5.03;2.90;;;32.80;76.70;;;;;;5076829;28;20454;-44
2022/08/04 11:14:28;;;;;;;3.87;2.73;;;32.70;77.90;;;;;;5089498;28;20496;-44
2022/08/04 11:16:58;;;;;;;5.33;2.80;;;32.50;79.80;;;;;;5048473;28;20527;-44
2022/08/04 11:19:38;;;;;;;3.77;3.47;;;32.40;78.80;;;;;;5078310;28;20419;-45
2022/08/04 11:22:07;;;;;;;4.57;3.50;;;32.20;79.50;;;;;;5089697;28;20831;-42
2022/08/04 11:25:20;;;;;;;6.60;3.20;;;32.10;78.40;;;;;;5089390;28;20423;-43
2022/08/04 11:27:50;;;;;;;7.80;3.60;;;32.00;79.70;;;;;;5067066;28;20541;-43
2022/08/04 11:30:16;;;;;;;4.30;3.20;;;31.90;80.20;;;;;;5088444;28;20462;-43
2022/08/04 11:33:08;;;;;;;4.30;2.97;;;31.90;82.70;;;;;;5089388;28;20422;-44
2022/08/04 11:35:43;;;;;;;3.10;2.80;;;32.00;86.00;;;;;;5089268;28;20423;-42
2022/08/04 11:38:24;;;;;;;6.37;3.17;;;32.30;82.10;;;;;;5088514;28;20521;-45
2022/08/04 11:40:57;;;;;;;5.30;2.87;;;32.30;81.80;;;;;;5089368;28;20426;-43
2022/08/04 11:43:35;;;;;;;4.23;2.97;;;32.30;79.70;;;;;;5089534;28;20479;-43
2022/08/04 11:46:08;;;;;;;5.30;2.70;;;32.20;79.80;;;;;;5089398;28;20770;-45
2022/08/04 11:48:47;;;;;;;5.10;2.77;;;32.10;80.60;;;;;;5092408;28;20908;-44
2022/08/04 11:51:14;;;;;;;6.30;3.30;;;32.10;80.70;;;;;;5091672;28;20542;-45
2022/08/04 11:53:42;;;;;;;6.33;3.93;;;32.00;80.80;;;;;;5093493;28;20429;-43
2022/08/04 11:56:12;;;;;;;6.17;4.30;;;32.00;81.90;;;;;;5093106;28;20422;-44
2022/08/04 11:58:38;;;;;;;5.67;3.70;;;31.90;82.70;;;;;;5092377;28;20446;-44
2022/08/04 12:01:21;;;;;;;6.50;3.73;;;31.80;83.90;;;;;;5092790;28;20793;-42
2022/08/04 12:04:18;;;;;;;7.70;4.10;;;31.90;85.80;;;;;;5091647;28;20429;-44
2022/08/04 12:06:59;;;;;;;8.13;3.40;;;31.90;85.30;;;;;;5084985;28;20445;-45
2022/08/04 12:09:46;;;;;;;6.57;4.33;;;31.90;86.50;;;;;;5092346;28;20487;-45
2022/08/04 12:12:36;;;;;;;7.23;3.60;;;31.90;84.90;;;;;;5092933;28;20438;-45
2022/08/04 12:15:05;;;;;;;5.40;3.77;;;31.80;84.70;;;;;;5092734;28;20402;-49
2022/08/04 12:17:39;;;;;;;4.53;2.80;;;31.70;84.50;;;;;;5092271;28;20445;-47
2022/08/04 12:20:08;;;;;;;4.20;3.50;;;31.50;84.10;;;;;;5091842;28;20453;-45
2022/08/04 12:22:39;;;;;;;5.87;3.20;;;31.40;85.00;;;;;;5092911;28;20429;-42
2022/08/04 12:25:20;;;;;;;4.10;3.00;;;31.20;85.50;;;;;;5092488;28;20422;-46
2022/08/04 12:27:52;;;;;;;5.03;3.00;;;31.10;87.10;;;;;;5090773;28;20821;-42
2022/08/04 12:30:18;;;;;;;4.63;3.30;;;31.00;88.00;;;;;;5092079;28;20462;-46
2022/08/04 12:33:02;;;;;;;4.87;3.20;;;30.80;88.90;;;;;;5092742;28;20417;-45
2022/08/04 12:36:01;;;;;;;3.77;2.60;;;30.70;90.40;;;;;;5092476;28;20812;-42
2022/08/04 12:38:31;;;;;;;11.87;3.63;;;30.70;90.60;;;;;;5083405;28;20770;-42
2022/08/04 12:41:02;;;;;;;3.37;2.80;;;30.60;90.70;;;;;;5092383;28;20846;-43
2022/08/04 12:43:43;;;;;;;3.43;2.63;;;30.60;90.20;;;;;;5092465;28;20434;-43
2022/08/04 12:46:16;;;;;;;3.10;2.60;;;30.60;89.40;;;;;;5092235;28;20422;-44
2022/08/04 12:48:45;;;;;;;2.83;2.63;;;30.60;89.50;;;;;;5091599;28;20431;-43
2022/08/04 12:51:12;;;;;;;6.73;3.10;;;30.60;90.10;;;;;;5091789;28;21198;-42
2022/08/04 12:53:40;;;;;;;6.17;2.83;;;30.60;90.60;;;;;;5092066;28;20425;-42
2022/08/04 12:56:10;;;;;;;4.30;3.47;;;30.60;90.70;;;;;;5091899;28;20419;-45
2022/08/04 12:58:45;;;;;;;3.40;3.10;;;30.60;90.80;;;;;;5090134;28;20425;-42
2022/08/04 13:01:22;;;;;;;4.53;3.60;;;30.60;91.40;;;;;;5053965;28;20468;-43
2022/08/04 13:03:56;;;;;;;8.53;2.97;;;30.60;90.30;;;;;;5085164;28;20425;-41
2022/08/04 13:06:29;;;;;;;5.93;3.20;;;30.50;90.20;;;;;;5090374;28;20463;-44
2022/08/04 13:09:01;;;;;;;6.23;3.37;;;30.50;90.60;;;;;;5091073;28;20442;-42
2022/08/04 13:11:27;;;;;;;3.90;3.03;;;30.50;90.50;;;;;;5091723;28;20819;-43
2022/08/04 13:13:56;;;;;;;7.33;3.40;;;30.50;91.00;;;;;;5091527;28;20431;-42
2022/08/04 13:16:29;;;;;;;4.70;2.80;;;30.60;91.30;;;;;;5091721;28;20920;-43
2022/08/04 13:18:56;;;;;;;4.40;3.20;;;30.70;91.70;;;;;;5090186;28;20418;-43
2022/08/04 13:21:24;;;;;;;8.43;3.47;;;30.80;92.10;;;;;;5091508;28;20426;-42
2022/08/04 13:23:57;;;;;;;5.40;3.43;;;30.90;92.60;;;;;;5091413;28;20534;-44
2022/08/04 13:26:25;;;;;;;4.53;3.40;;;31.00;93.00;;;;;;5091150;28;20429;-43
2022/08/04 13:28:53;;;;;;;5.20;3.63;;;31.00;92.90;;;;;;5090924;28;20537;-42
2022/08/04 13:31:21;;;;;;;5.67;3.63;;;31.00;93.00;;;;;;5091228;28;20552;-46
2022/08/04 13:33:50;;;;;;;5.47;4.10;;;31.00;93.60;;;;;;5091369;28;20417;-43
2022/08/04 13:36:17;;;;;;;7.57;3.83;;;30.90;93.50;;;;;;5091035;28;20422;-43